Loisir ou Compétition : Rejoignez un Club de la Fédération

Résultats

Chpt de France Minimes Ecureuils d Or - Trophée Caisse d Epargne - Kassbohrer (1ère Etape)

SERRE CHEVALIER

SG Hommes

Jury de Compétition

Délégué Technique :
BORNAT PIERRE (SA)
Arbitre :
JOURDAN FRANCOIS (SA)
Assistant :
BLANC THIERRY (SA)
Dir. Epreuve :
PAGE KEVIN (AP)

Caractéristiques de la Piste

Piste :
LUC ALPHAND
Départ :
1820
Arrivée :
1370
Dénivelé :
450
Homologation :
2224/12/05

Manche 1

Nombre de Portes :
40
Heure de Départ :
12h30
Traceur :
MELQUIOND BENJAMIN (AP)
Ouvreurs A :
RICHIER ALIZE (AP)
Ouvreurs B :
MOUGEL LAURIE (AP)
Ouvreurs C :
CHAMPIOT ROBIN (AP)
Ouvreurs D :
BARNEOUD SHIRLEY (AP)
Ouvreurs E :
MOUGEL YOURI (AP)
Temps :
Beau
Neige :
Dure

Manche 2

Nombre de Portes :
 
Heure de Départ :
 
Traceur :
 
Ouvreurs A :
 
Ouvreurs B :
 
Ouvreurs C :
 
Ouvreurs D :
 
Ouvreurs E :
 
Température Départ :
 
Température Arrivée :
 

Pénalité Appliquée :
98.9400

Catégorie :
Min
Clt Dos Clt/Cat Code An Nom Prénom Com Club Tps M1 Tps Tot Pts
Classés
1 26 1/Min FFS2353623 1994 MABBOUX JEREMY MB CS MEGEVE 1:13.73 1:13.73 98.94
2 19 2/Min FFS2349098 1994 JOIN SEBASTIEN AP SERRE CHEVAL 1:14.22 1:14.22 105.98
3 56 3/Min FFS2349701 1994 DELOR EMILIEN AU SC LIORAN 1:14.46 1:14.46 109.44
4 117 4/Min FFS2604398 1994 GALAND NOE ANTOINE AP GAP ORCIERES 1:14.50 1:14.50 110.01
5 109 5/Min FFS2604777 1994 VANDEL THOMAS DA CHAMROUSSE S 1:15.59 1:15.59 125.68
6 33 6/Min FFS2605309 1994 COULET GABRIEL MB LES HOUCHES 1:16.14 1:16.14 133.59
7 20 7/Min FFS2600857 1994 BAILLY SALINS GUILLAUME MB SC COMBLOUX 1:16.19 1:16.19 134.31
8 80 8/Min FFS2617332 1994 COMBREAS SYDNEY SA CS LA PLAGNE 1:16.29 1:16.29 135.74
9 79 9/Min FFS2356871 1994 CASTELLON RUDY SA SC MENUIRES 1:16.32 1:16.32 136.18
10 98 10/Min FFS2600934 1994 CHASSAING ETIENNE MB CS LA CLUSAZ 1:16.36 1:16.36 136.75
11 30 11/Min FFS2356505 1994 LORIOT ROMAIN SA ST FRANCOIS 1:16.52 1:16.52 139.05
12 32 12/Min FFS2600259 1994 BLOND PIERRE DA CHAMROUSSE S 1:16.54 1:16.54 139.34
13 97 13/Min FFS2640664 1994 JONES ALEC MB CS CHAMONIX 1:16.62 1:16.62 140.49
14 105 14/Min FFS2601030 1994 HUBAUD MAXIME AP EC CHAMPSAUR 1:16.70 1:16.70 141.64
15 83 15/Min FFS2356435 1994 LAUER ROBIN SA SC MERIBEL 1:16.74 1:16.74 142.21
16 14 16/Min FFS2262606 1994 ANSELME ANTOINE MB LES HOUCHES 1:16.92 1:16.92 144.80
17 59 17/Min FFS2324482 1994 PEREZ GUILLAUME MB CS LA CLUSAZ 1:16.94 1:16.94 145.09
18 106 18/Min FFS2602315 1994 NARDINI YANNICK AP ORRES EMBRUN 1:16.97 1:16.97 145.52
19 16 19/Min FFS2615577 1994 ABUMACKAYE AYMERIC PE SC FT ROMEU 1:16.98 1:16.98 145.66
20 17 20/Min FFS2613237 1994 MATELON QUENTIN MB CS MANIGOD 1:17.05 1:17.05 146.67
21 31 21/Min FFS2602858 1995 GATEAU ELIE SA SC MERIBEL 1:17.07 1:17.07 146.96
22 69 22/Min FFS2356152 1994 CLAIR TITOUAN SA VAL D'ISERE 1:17.10 1:17.10 147.39
23 11 23/Min FFS2613451 1994 REYNAUD VINCENT DA CO SEPT LAUX 1:17.18 1:17.18 148.54
23 115 23/Min FFS2613238 1994 SANTEIX LOUIS MB CS MANIGOD 1:17.18 1:17.18 148.54
25 71 25/Min FFS2349113 1994 SARRAZIN CYPRIEN AP US VEYNOISE 1:17.20 1:17.20 148.83
26 40 26/Min FFS2351732 1994 SARRET ANTONIN DA SC ALPE HUEZ 1:17.26 1:17.26 149.69
27 73 27/Min FFS2356212 1994 BOURGEAT MATEO SA SC MERIBEL 1:17.37 1:17.37 151.27
28 58 28/Min FFS2602517 1994 CERUTTI CORENTIN SA SC LES ARCS 1:17.39 1:17.39 151.56
29 125 29/Min FFS2606302 1994 JORDANIS ROBIN MB LES GETS S.C 1:17.53 1:17.53 153.57
30 53 30/Min FFS2601108 1995 HERPIN LENY SA SC SAISIES 1:17.55 1:17.55 153.86
31 111 31/Min FFS2617748 1995 DELHOME ROBIN DA VILLARDELANS 1:17.64 1:17.64 155.15
32 12 32/Min FFS2600088 1994 TEXIDO THOMAS MV VT MULHOUSE 1:17.94 1:17.94 159.47
32 41 32/Min FFS2631840 1994 AUDIGIER JULIEN DA VILLARDELANS 1:17.94 1:17.94 159.47
34 44 34/Min FFS2600340 1995 PERRIER PAUL SA CS TIGNES 1:18.02 1:18.02 160.62
35 102 35/Min FFS2614672 1994 VUARAND THIBAUT MB S.C. CHATEL 1:18.13 1:18.13 162.20
36 113 36/Min FFS2327326 1994 REYGROBELLET MAXIME LY RCCB SKI 1:18.28 1:18.28 164.35
37 6 37/Min FFS2326941 1994 PERRIER ALEXIS SA SC ARECHES 1:18.30 1:18.30 164.64
38 24 38/Min FFS2348971 1994 ALBANO LORIS AP CO PRALOUP 1:18.32 1:18.32 164.93
39 37 39/Min FFS2353552 1994 VULLIET ENZO MB SC GD BORNAN 1:18.38 1:18.38 165.79
40 64 40/Min FFS2613382 1994 HOEN BENOIT SA CS LA PLAGNE 1:18.43 1:18.43 166.51
41 51 41/Min FFS2357386 1994 FAVROT THIBAUT MV SKI STRASBOU 1:18.46 1:18.46 166.94
42 3 42/Min FFS2613361 1994 FALCOZ VIGNE YAN DA SC OZ-ALLEMO 1:18.47 1:18.47 167.09
43 35 43/Min FFS2356428 1994 FERNEY AURELIEN SA CS VALMOREL 1:18.50 1:18.50 167.52
43 75 43/Min FFS2356503 1994 PERRET ALEXIS SA ST FRANCOIS 1:18.50 1:18.50 167.52
45 57 45/Min FFS2602531 1995 SOCQUET JUGLARD RAPHAEL MB SC COMBLOUX 1:18.53 1:18.53 167.95
46 114 46/Min FFS2326796 1994 BRUNET CLEMENT SA SC GIETTAZ 1:18.55 1:18.55 168.24
47 76 47/Min FFS2356774 1994 ANSELMET BERANGER SA SC BONNEVAL 1:18.58 1:18.58 168.67
48 9 48/Min FFS2600115 1994 COURTOIS ROMAIN MV SRD ST DIE 1:18.70 1:18.70 170.39
49 27 49/Min FFS2356445 1995 NANTERMOZ THOMAS SA SC ARECHES 1:18.72 1:18.72 170.68
50 95 50/Min FFS2617228 1994 LALLEMENT BASTIEN CA ISOLA 2000 1:18.78 1:18.78 171.54
51 7 51/Min FFS2600635 1994 BUNOD WILLY MB ANNECY SEMNO 1:18.80 1:18.80 171.83
52 120 52/Min FFS2353609 1994 REGARD DAMIEN MB SC CARROZ 1:18.81 1:18.81 171.97
53 93 53/Min FFS2619762 1995 IMMLER TOM NIELS CA INTER CLUB 1:18.86 1:18.86 172.69
54 5 54/Min FFS2352809 1994 MOREL CHARLES MJ SC VAL MORTE 1:18.90 1:18.90 173.27
55 50 55/Min FFS2616423 1994 FRAYSSE JULIEN PE SC ST LARY 1:18.98 1:18.98 174.42
56 38 56/Min FFS2326787 1995 BOVAGNE DORIAN SA SC FLUMET 1:19.00 1:19.00 174.71
57 84 57/Min FFS2602326 1994 GAUDISSARD GAETAN AP ORRES EMBRUN 1:19.07 1:19.07 175.71
58 23 58/Min FFS2326793 1994 REBORD MARTIN SA CREST VOLAND 1:19.10 1:19.10 176.14
58 42 58/Min FFS2602631 1994 PIANTONI AXEL SA SC MENUIRES 1:19.10 1:19.10 176.14
60 54 60/Min FFS2353434 1994 COQUILLARD MATHIEU MB SC MORZINE 1:19.11 1:19.11 176.29
60 112 60/Min FFS2353431 1994 TSCHOFEN ROBIN MB SC AVORIAZ 1:19.11 1:19.11 176.29
62 25 62/Min FFS2613236 1994 FOURNIER BIDOZ SAMUEL MB CS MANIGOD 1:19.15 1:19.15 176.86
63 110 63/Min FFS2353613 1994 TUAZ NICOLAS MB CS PRAZ/ARLY 1:19.20 1:19.20 177.58
64 88 64/Min FFS2353661 1994 VOISIN NATHAN MB SC BELLEVAUX 1:19.27 1:19.27 178.59
65 34 65/Min FFS2349208 1995 NIEL THOMAS AP SERRE CHEVAL 1:19.30 1:19.30 179.02
66 2 66/Min FFS2605107 1995 GALLETTI BAPTISTE AP SERRE CHEVAL 1:19.31 1:19.31 179.16
67 18 67/Min FFS2616600 1995 FAVRE MAXIME MB S.C. CHATEL 1:19.37 1:19.37 180.03
68 118 68/Min FFS2600856 1995 FRICK MEDHI YANN AP SERRE CHEVAL 1:19.39 1:19.39 180.31
69 43 69/Min FFS2326789 1995 BOURGEOIS ROMAIN SIMON SA CREST VOLAND 1:19.51 1:19.51 182.04
70 22 70/Min FFS2324525 1994 ROUSSON MAXIME MB CS LA CLUSAZ 1:19.52 1:19.52 182.18
71 13 71/Min FFS2356513 1994 PASQUIER ANTHONY SA CS KARELLIS 1:19.56 1:19.56 182.76
72 94 72/Min FFS2617751 1994 CHEVALLIER VICTOR MB COMPE CLUSES 1:19.58 1:19.58 183.04
73 116 73/Min FFS2296058 1994 MOYNIHAN NICOLAS SA COURCHEVEL 1:19.67 1:19.67 184.34
74 123 74/Min FFS2602318 1995 BROQUEDIS ADRIEN AP ORRES EMBRUN 1:19.73 1:19.73 185.20
75 62 75/Min FFS2621910 1995 SANSON THIBAULT PE SC LUCHON 1:19.83 1:19.83 186.64
75 65 75/Min FFS2605909 1994 ROCHAT ARNAUD MB VIUZ SALLAZ 1:19.83 1:19.83 186.64
77 4 77/Min FFS2602870 1994 RICOU IVO AP EC CHAMPSAUR 1:19.85 1:19.85 186.93
77 66 77/Min FFS2353518 1995 RENARD RYAN MB SC ST GERVAI 1:19.85 1:19.85 186.93
79 48 79/Min FFS2322522 1994 PAGEL HENRICK MJ SC J.GESSIEN 1:19.89 1:19.89 187.50
80 107 80/Min FFS2356427 1994 BOUVIER GARZON JEREMY SA CS VALMOREL 1:20.06 1:20.06 189.95
80 121 80/Min FFS2615437 1994 DUNAND QUENTIN MB CS MANIGOD 1:20.06 1:20.06 189.95
82 77 82/Min FFS2349005 1995 BERLA FRANCK AP ES VALLOUISE 1:20.10 1:20.10 190.52
82 103 82/Min FFS2623890 1994 PERRET ARNAUD SA SC LES ARCS 1:20.10 1:20.10 190.52
84 21 84/Min FFS2356210 1994 RAVIER SAM SA SC MERIBEL 1:20.28 1:20.28 193.11
85 81 85/Min FFS2357360 1994 MANIGOLD EMERICK MV SCV THANN 1:20.32 1:20.32 193.68
86 29 86/Min FFS2357723 1994 MULLER NICOLAS MV SCV WESSERLI 1:20.37 1:20.37 194.40
86 122 86/Min FFS2602274 1995 VARVENNE ARTHUR SA CS MONTALBER 1:20.37 1:20.37 194.40
88 46 88/Min FFS2614662 1994 CRUZ MERMY TANGUY MB S.C. CHATEL 1:20.74 1:20.74 199.72
89 63 89/Min FFS2354173 1994 RIGAUD NICOLAS MB ANNECY SEMNO 1:20.93 1:20.93 202.45
90 96 90/Min FFS2622548 1995 PARENT EMERIC PE NEIGE AZUR 1:20.96 1:20.96 202.88
91 8 91/Min FFS2620691 1995 CAMOU JUNCAS NICOLAS PO AS BARETOUS 1:21.31 1:21.31 207.92
92 87 92/Min FFS2356516 1995 ALLIOT LUGAZ BAPTISTE SA ND BELLECOMB 1:21.36 1:21.36 208.63
93 49 93/Min FFS2326964 1994 ROSSAT MIGNOD CORENTIN SA ND BELLECOMB 1:21.64 1:21.64 212.66
94 90 94/Min FFS2621710 1995 ANDRIEU JEAN MATHIEU PE SC AUDOIS 1:21.70 1:21.70 213.52
95 119 95/Min FFS2297196 1995 SCHULLER VICTOR MV AN MUNSTER 1:21.96 1:21.96 217.26
96 60 96/Min FFS2644584 1994 ARENDT SIMON SA CS KARELLIS 1:21.97 1:21.97 217.40
97 52 97/Min FFS2600113 1995 BLOCH GASPARD MV VT MULHOUSE 1:22.05 1:22.05 218.55
98 100 98/Min FFS2613853 1994 GUILLE STEFANO PE PEYRAGUDES 1:22.08 1:22.08 218.99
99 55 99/Min FFS2620237 1995 BOUSSON LOUIS SA CS MTCHAVIN 1:22.19 1:22.19 220.57
100 101 100/Min FFS2615585 1995 ZINNATO LUCAS PO SC CAUTERETS 1:22.35 1:22.35 222.87
101 72 101/Min FFS2619527 1994 MARTIN KEVIN LY ASPTT GDLYON 1:22.61 1:22.61 226.61
102 74 102/Min FFS2602919 1995 SALGUES EMILE MB SC CARROZ 1:23.09 1:23.09 233.51
103 99 103/Min FFS2352504 1994 HERNANDEZ TEO MJ SC J.GESSIEN 1:23.45 1:23.45 238.68
104 70 104/Min FFS2357357 1994 COURTOIS ETIENNE MV SCV THANN 1:25.33 1:25.33 265.71
Abandons
1 FFS2262599 1994 FERRAGE OLIVIER MB CS CHAMONIX
15 FFS2600853 1994 FINE BAPTISTE AP SERRE CHEVAL
28 FFS2356028 1994 MERCIER ALEXIS SA CS TIGNES
45 FFS2356371 1995 BONNEFOND TOM SA SC SAISIES
47 FFS2600749 1994 PIROUX GUILLAUME FZ SPORT HIV FZ
61 FFS2357551 1994 SCHROEDER PIERRE MV AN MUNSTER
68 FFS2292905 1994 LACHAUX LOIC MJ SC J.GESSIEN
78 FFS2353414 1994 PAGET TANGUY MB SC CARROZ
85 FFS2602141 1994 FERRER JEREMIE PO SC CAUTERETS
89 FFS2293702 1994 MOSER BENJAMIN MB SC ST GERVAI
92 FFS2319183 1994 GALDI THEO AP CS RISOUL
104 FFS2604508 1994 ARPIN GAETAN SA VAL D'ISERE
108 FFS2356219 1994 PETIT THIBAUT SA SC MERIBEL
126 FFS2351775 1994 ACHARD FLORIAN DA LANS VERCORS
Disqualifiés
10 FFS2602528 1995 DAITA JUNIOR MB SC COMBLOUX
91 FFS2603829 1995 JUILLAGUET SWAN MJ US LAMOURA
124 FFS2319287 1994 ALLEGRE NILS AP SERRE CHEVAL
Non partants
36 FFS2606085 1995 GAUTHIER THIBAUT MB CS LA CLUSAZ
39 FFS2616376 1995 NOUVEL JACQUES SA SC LES ARCS
67 FFS2354174 1994 CHEVENEMENT LUC MB ANNECY SEMNO
82 FFS2351619 1995 SALERNO HUGO DA CHAMROUSSE S
86 FFS2631301 1995 LEDERMANN ALEXANDRE CA INTER CLUB